Time;durP1;ratioP1;P1;durP2;ratioP2;P2;SDS_P1;SDS_P2;PMS_P1;PMS_P2;Temp;Humidity;BMP_temperature;BMP_pressure;BME280_temperature;BME280_humidity;BME280_pressure;Samples;Min_cycle;Max_cycle;Signal;HPM_P1;HPM_P2
2022/04/09 00:00:42;;;;;;;0.20;0.20;;;;;;;;;;5114855;28;20019;-77
2022/04/09 00:03:08;;;;;;;0.40;0.40;;;;;;;;;;5096321;28;20028;-77
2022/04/09 00:05:34;;;;;;;0.10;0.10;;;;;;;;;;5095849;28;20479;-77
2022/04/09 00:08:00;;;;;;;0.10;0.10;;;;;;;;;;5114385;28;20023;-76
2022/04/09 00:10:26;;;;;;;0.10;0.10;;;;;;;;;;5095857;28;20433;-77
2022/04/09 00:12:52;;;;;;;0.10;0.10;;;;;;;;;;5114352;28;20055;-77
2022/04/09 00:15:18;;;;;;;0.10;0.10;;;;;;;;;;5113985;28;20082;-77
2022/04/09 00:17:46;;;;;;;0.10;0.10;;;;;;;;;;5096256;28;20479;-77
2022/04/09 00:20:13;;;;;;;0.10;0.10;;;;;;;;;;5096133;28;20024;-77
2022/04/09 00:22:39;;;;;;;0.10;0.10;;;;;;;;;;5095580;28;20125;-77
2022/04/09 00:25:09;;;;;;;0.10;0.10;;;;;;;;;;5095752;28;20065;-78
2022/04/09 00:27:36;;;;;;;0.10;0.10;;;;;;;;;;5113784;28;20110;-78
2022/04/09 00:30:03;;;;;;;0.10;0.10;;;;;;;;;;5113949;28;20055;-77
2022/04/09 00:32:29;;;;;;;0.08;0.08;;;;;;;;;;5113825;28;20031;-78
2022/04/09 00:34:55;;;;;;;0.10;0.10;;;;;;;;;;5113801;28;20032;-77
2022/04/09 00:37:21;;;;;;;0.10;0.10;;;;;;;;;;5095299;28;20031;-78
2022/04/09 00:39:47;;;;;;;0.10;0.10;;;;;;;;;;5113927;28;20487;-78
2022/04/09 00:42:14;;;;;;;0.10;0.10;;;;;;;;;;5095922;28;20523;-78
2022/04/09 00:44:40;;;;;;;0.10;0.10;;;;;;;;;;5113934;28;20016;-78
2022/04/09 00:47:07;;;;;;;0.10;0.10;;;;;;;;;;5113515;28;20390;-78
2022/04/09 00:49:33;;;;;;;0.10;0.10;;;;;;;;;;5095172;28;20070;-78
2022/04/09 00:52:00;;;;;;;0.10;0.10;;;;;;;;;;5113740;28;20141;-78
2022/04/09 00:54:27;;;;;;;0.10;0.10;;;;;;;;;;5113099;28;20440;-78
2022/04/09 00:56:54;;;;;;;0.10;0.10;;;;;;;;;;5113504;28;20027;-78
2022/04/09 00:59:24;;;;;;;0.10;0.10;;;;;;;;;;5095214;28;20495;-78
2022/04/09 01:01:52;;;;;;;0.10;0.10;;;;;;;;;;5094992;28;20074;-78
2022/04/09 01:04:19;;;;;;;0.10;0.10;;;;;;;;;;5093651;28;20027;-77
2022/04/09 01:06:46;;;;;;;0.10;0.10;;;;;;;;;;5113256;28;20104;-77
2022/04/09 01:09:12;;;;;;;0.10;0.10;;;;;;;;;;5113862;28;20509;-77
2022/04/09 01:11:39;;;;;;;0.10;0.10;;;;;;;;;;5113027;28;20098;-77
2022/04/09 01:14:05;;;;;;;0.10;0.10;;;;;;;;;;5113027;28;20032;-77
2022/04/09 01:16:31;;;;;;;0.10;0.10;;;;;;;;;;5112734;28;20024;-78
2022/04/09 01:19:01;;;;;;;0.10;0.10;;;;;;;;;;5094665;28;20030;-77
2022/04/09 01:21:28;;;;;;;0.10;0.10;;;;;;;;;;5112718;28;20019;-77
2022/04/09 01:23:57;;;;;;;0.10;0.10;;;;;;;;;;5094597;28;20031;-77
2022/04/09 01:26:23;;;;;;;0.10;0.10;;;;;;;;;;5112678;28;20031;-78
2022/04/09 01:28:49;;;;;;;0.10;0.10;;;;;;;;;;5112805;28;20027;-77
2022/04/09 01:31:18;;;;;;;0.10;0.10;;;;;;;;;;5112444;28;20053;-76
2022/04/09 01:33:44;;;;;;;0.10;0.10;;;;;;;;;;5112884;28;20031;-77
2022/04/09 01:36:10;;;;;;;0.10;0.10;;;;;;;;;;5094695;28;20024;-77
2022/04/09 01:38:37;;;;;;;0.10;0.10;;;;;;;;;;5112332;28;20032;-77
2022/04/09 01:41:03;;;;;;;0.15;0.15;;;;;;;;;;5112663;28;20027;-77
2022/04/09 01:43:29;;;;;;;6.10;5.68;;;;;;;;;;5093953;28;20106;-77
2022/04/09 01:45:55;;;;;;;0.10;0.10;;;;;;;;;;5094133;28;20498;-76
2022/04/09 01:48:21;;;;;;;0.10;0.10;;;;;;;;;;5112023;28;20467;-77
2022/04/09 01:50:47;;;;;;;0.10;0.10;;;;;;;;;;5112349;28;20053;-77
2022/04/09 01:53:13;;;;;;;0.10;0.10;;;;;;;;;;5112591;28;20457;-77
2022/04/09 01:55:40;;;;;;;0.10;0.10;;;;;;;;;;5112235;27;20084;-78
2022/04/09 01:58:06;;;;;;;0.10;0.10;;;;;;;;;;5112190;28;20071;-78
2022/04/09 02:00:32;;;;;;;0.17;0.17;;;;;;;;;;5111985;28;20027;-77
2022/04/09 02:02:58;;;;;;;0.10;0.10;;;;;;;;;;5112166;28;20028;-77
2022/04/09 02:05:24;;;;;;;0.10;0.10;;;;;;;;;;5111961;28;20031;-78
2022/04/09 02:07:51;;;;;;;0.10;0.10;;;;;;;;;;5112073;28;20118;-78
2022/04/09 02:10:18;;;;;;;0.10;0.10;;;;;;;;;;5111845;28;20099;-77
2022/04/09 02:12:45;;;;;;;0.10;0.10;;;;;;;;;;5112336;28;20158;-77
2022/04/09 02:15:11;;;;;;;0.10;0.10;;;;;;;;;;5111980;28;20031;-78
2022/04/09 02:17:38;;;;;;;0.10;0.10;;;;;;;;;;5111684;28;20053;-78
2022/04/09 02:20:05;;;;;;;0.10;0.10;;;;;;;;;;5111912;28;20024;-77
2022/04/09 02:22:38;;;;;;;0.10;0.10;;;;;;;;;;5111582;28;20026;-78
2022/04/09 02:25:04;;;;;;;0.15;0.15;;;;;;;;;;5111818;28;20098;-78
2022/04/09 02:27:30;;;;;;;0.10;0.10;;;;;;;;;;5111459;28;20035;-78
2022/04/09 02:29:57;;;;;;;0.10;0.10;;;;;;;;;;5093519;28;20024;-78
2022/04/09 02:32:23;;;;;;;0.10;0.10;;;;;;;;;;5111540;28;20480;-78
2022/04/09 02:34:52;;;;;;;0.10;0.10;;;;;;;;;;5093324;28;20053;-77
2022/04/09 02:37:18;;;;;;;0.17;0.17;;;;;;;;;;5111464;28;20023;-77
2022/04/09 02:39:44;;;;;;;0.10;0.10;;;;;;;;;;5112016;28;20051;-77
2022/04/09 02:42:12;;;;;;;0.10;0.10;;;;;;;;;;5112007;28;20028;-78
2022/04/09 02:44:38;;;;;;;0.10;0.10;;;;;;;;;;5111405;28;20020;-78
2022/04/09 02:47:04;;;;;;;0.10;0.10;;;;;;;;;;5111571;28;20020;-77
2022/04/09 02:49:30;;;;;;;0.10;0.10;;;;;;;;;;5111207;28;20034;-78
2022/04/09 02:51:56;;;;;;;0.10;0.10;;;;;;;;;;5093276;28;20024;-77
2022/04/09 02:54:22;;;;;;;0.10;0.10;;;;;;;;;;5111103;28;20039;-78
2022/04/09 02:56:48;;;;;;;1.48;1.38;;;;;;;;;;5111502;28;20035;-76
2022/04/09 02:59:15;;;;;;;0.10;0.10;;;;;;;;;;5111766;28;20020;-76
2022/04/09 03:01:42;;;;;;;0.13;0.13;;;;;;;;;;5093577;28;20030;-76
2022/04/09 03:04:08;;;;;;;0.10;0.10;;;;;;;;;;5111513;28;20019;-76
2022/04/09 03:06:34;;;;;;;0.20;0.20;;;;;;;;;;5092956;28;20431;-76
2022/04/09 03:09:00;;;;;;;0.10;0.10;;;;;;;;;;5111447;28;20114;-76
2022/04/09 03:11:26;;;;;;;0.10;0.10;;;;;;;;;;5092851;28;20023;-75
2022/04/09 03:13:52;;;;;;;0.10;0.10;;;;;;;;;;5093071;28;20483;-76
2022/04/09 03:16:18;;;;;;;0.10;0.10;;;;;;;;;;5092854;28;20045;-77
2022/04/09 03:18:44;;;;;;;0.10;0.10;;;;;;;;;;5111647;28;20031;-76
2022/04/09 03:21:13;;;;;;;0.10;0.10;;;;;;;;;;5111645;28;20471;-76
2022/04/09 03:23:39;;;;;;;0.10;0.10;;;;;;;;;;5110865;28;20030;-77
2022/04/09 03:26:05;;;;;;;1.08;1.08;;;;;;;;;;5125418;27;20425;-76
2022/04/09 03:28:32;;;;;;;0.10;0.10;;;;;;;;;;5135329;27;20060;-77
2022/04/09 03:30:58;;;;;;;0.10;0.10;;;;;;;;;;5135593;27;20046;-76
2022/04/09 03:33:24;;;;;;;0.10;0.10;;;;;;;;;;5135153;27;20027;-76
2022/04/09 03:35:50;;;;;;;0.10;0.10;;;;;;;;;;5135528;27;20058;-77
2022/04/09 03:38:16;;;;;;;0.10;0.10;;;;;;;;;;5135515;27;20366;-76
2022/04/09 03:40:42;;;;;;;0.10;0.10;;;;;;;;;;5135639;27;20038;-76
2022/04/09 03:43:08;;;;;;;0.10;0.10;;;;;;;;;;5135592;27;20019;-77
2022/04/09 03:45:34;;;;;;;0.10;0.10;;;;;;;;;;5116646;27;20368;-77
2022/04/09 03:48:01;;;;;;;0.10;0.10;;;;;;;;;;5135281;27;20016;-77
2022/04/09 03:50:27;;;;;;;0.05;0.05;;;;;;;;;;5134861;27;20042;-78
2022/04/09 03:52:53;;;;;;;0.10;0.10;;;;;;;;;;5116634;27;20118;-77
2022/04/09 03:55:19;;;;;;;0.10;0.10;;;;;;;;;;5134734;27;20064;-77
2022/04/09 03:57:46;;;;;;;0.10;0.10;;;;;;;;;;5116922;27;20046;-76
2022/04/09 04:00:14;;;;;;;0.20;0.20;;;;;;;;;;5135482;27;20031;-76
2022/04/09 04:02:40;;;;;;;0.10;0.10;;;;;;;;;;5116339;27;20038;-76
2022/04/09 04:05:06;;;;;;;0.10;0.10;;;;;;;;;;5134994;27;20050;-77
2022/04/09 04:07:33;;;;;;;0.10;0.10;;;;;;;;;;5116135;27;20027;-76
2022/04/09 04:10:05;;;;;;;0.10;0.10;;;;;;;;;;5134842;27;20019;-76
2022/04/09 04:12:31;;;;;;;0.10;0.10;;;;;;;;;;5134569;27;20527;-76
2022/04/09 04:14:57;;;;;;;0.10;0.10;;;;;;;;;;5134723;27;20490;-77
2022/04/09 04:17:23;;;;;;;0.10;0.10;;;;;;;;;;5116165;27;20059;-77
2022/04/09 04:19:49;;;;;;;0.10;0.10;;;;;;;;;;5134515;27;20023;-77
2022/04/09 04:22:15;;;;;;;0.10;0.10;;;;;;;;;;5116434;27;20024;-77
2022/04/09 04:24:41;;;;;;;0.10;0.10;;;;;;;;;;5115994;27;20072;-77
2022/04/09 04:27:07;;;;;;;0.10;0.10;;;;;;;;;;5116170;27;20556;-77
2022/04/09 04:29:34;;;;;;;0.13;0.13;;;;;;;;;;5134300;27;20023;-78
2022/04/09 04:32:00;;;;;;;0.10;0.10;;;;;;;;;;5134463;27;20386;-77
2022/04/09 04:34:27;;;;;;;0.10;0.10;;;;;;;;;;5133776;27;20032;-77
2022/04/09 04:36:53;;;;;;;0.10;0.10;;;;;;;;;;5115667;27;20145;-78
2022/04/09 04:39:19;;;;;;;0.10;0.10;;;;;;;;;;5133923;27;20094;-76
2022/04/09 04:41:45;;;;;;;0.10;0.10;;;;;;;;;;5134436;27;20058;-77
2022/04/09 04:44:11;;;;;;;0.10;0.10;;;;;;;;;;5133990;27;20401;-76
2022/04/09 04:46:39;;;;;;;0.10;0.10;;;;;;;;;;5115403;27;20092;-76
2022/04/09 04:49:05;;;;;;;0.10;0.10;;;;;;;;;;5133956;27;20034;-77
2022/04/09 04:51:31;;;;;;;0.10;0.10;;;;;;;;;;5133918;27;20022;-76
2022/04/09 04:53:58;;;;;;;0.10;0.10;;;;;;;;;;5133993;27;20035;-76
2022/04/09 04:56:25;;;;;;;0.10;0.10;;;;;;;;;;5133877;27;20072;-78
2022/04/09 04:58:51;;;;;;;0.10;0.10;;;;;;;;;;5134150;27;20387;-77
2022/04/09 05:01:17;;;;;;;0.10;0.10;;;;;;;;;;5134279;27;20097;-77
2022/04/09 05:03:43;;;;;;;0.10;0.10;;;;;;;;;;5134075;27;20048;-77
2022/04/09 05:06:09;;;;;;;0.10;0.10;;;;;;;;;;5133947;27;20034;-77
2022/04/09 05:08:35;;;;;;;0.10;0.10;;;;;;;;;;5133561;27;20015;-76
2022/04/09 05:11:01;;;;;;;0.13;0.13;;;;;;;;;;5134007;27;20030;-77
2022/04/09 05:13:27;;;;;;;0.05;0.05;;;;;;;;;;5114989;27;20049;-77
2022/04/09 05:15:53;;;;;;;0.10;0.10;;;;;;;;;;5115205;27;20156;-77
2022/04/09 05:18:19;;;;;;;0.10;0.10;;;;;;;;;;5133230;27;20094;-77
2022/04/09 05:20:45;;;;;;;0.10;0.10;;;;;;;;;;5133830;27;20027;-76
2022/04/09 05:23:11;;;;;;;0.10;0.10;;;;;;;;;;5115054;27;20055;-77
2022/04/09 05:25:37;;;;;;;0.10;0.10;;;;;;;;;;5133186;27;20055;-78
2022/04/09 05:28:08;;;;;;;0.10;0.10;;;;;;;;;;5133398;27;20023;-77
2022/04/09 05:30:34;;;;;;;0.10;0.10;;;;;;;;;;5133064;27;20394;-77
2022/04/09 05:33:00;;;;;;;0.10;0.10;;;;;;;;;;5133309;27;20030;-77
2022/04/09 05:35:26;;;;;;;0.20;0.20;;;;;;;;;;5132835;27;20205;-77
2022/04/09 05:37:52;;;;;;;0.10;0.10;;;;;;;;;;5133261;27;20019;-77
2022/04/09 05:40:18;;;;;;;0.10;0.10;;;;;;;;;;5133033;27;20084;-75
2022/04/09 05:42:45;;;;;;;0.10;0.10;;;;;;;;;;5133397;27;20061;-76
2022/04/09 05:45:13;;;;;;;0.10;0.10;;;;;;;;;;5133044;27;20026;-76
2022/04/09 05:47:42;;;;;;;0.10;0.10;;;;;;;;;;5132733;27;20023;-77
2022/04/09 05:50:12;;;;;;;0.20;0.20;;;;;;;;;;5132255;27;20084;-77
2022/04/09 05:52:38;;;;;;;0.17;0.17;;;;;;;;;;5114216;27;20027;-77
2022/04/09 05:55:05;;;;;;;0.10;0.10;;;;;;;;;;5131920;27;20035;-77
2022/04/09 05:57:32;;;;;;;0.15;0.15;;;;;;;;;;5119980;27;20023;-77
2022/04/09 05:59:58;;;;;;;0.10;0.10;;;;;;;;;;5132031;27;20027;-78
2022/04/09 06:02:24;;;;;;;0.10;0.10;;;;;;;;;;5132400;27;20050;-78
2022/04/09 06:04:50;;;;;;;0.15;0.15;;;;;;;;;;5122981;27;20120;-77
2022/04/09 06:07:17;;;;;;;0.10;0.10;;;;;;;;;;5132185;27;20026;-78
2022/04/09 06:09:43;;;;;;;0.10;0.10;;;;;;;;;;5132577;27;20035;-78
2022/04/09 06:12:12;;;;;;;0.10;0.10;;;;;;;;;;5132685;27;20034;-78
2022/04/09 06:14:38;;;;;;;0.10;0.10;;;;;;;;;;5132411;27;20031;-78
2022/04/09 06:17:04;;;;;;;0.10;0.10;;;;;;;;;;5114139;27;20020;-78
2022/04/09 06:19:31;;;;;;;0.10;0.10;;;;;;;;;;5132247;27;20061;-78
2022/04/09 06:21:57;;;;;;;0.10;0.10;;;;;;;;;;5114122;27;20387;-78
2022/04/09 06:24:23;;;;;;;0.10;0.10;;;;;;;;;;5131418;27;20027;-78
2022/04/09 06:26:49;;;;;;;0.10;0.10;;;;;;;;;;5113990;27;20023;-78
2022/04/09 06:29:15;;;;;;;0.10;0.10;;;;;;;;;;5132672;27;20098;-78
2022/04/09 06:31:41;;;;;;;0.10;0.10;;;;;;;;;;5131248;27;20020;-77
2022/04/09 06:34:07;;;;;;;0.10;0.10;;;;;;;;;;5112399;27;20039;-78
2022/04/09 06:36:33;;;;;;;0.10;0.10;;;;;;;;;;5129960;27;20034;-77
2022/04/09 06:39:00;;;;;;;0.10;0.10;;;;;;;;;;5131478;27;20436;-78
2022/04/09 06:41:28;;;;;;;0.10;0.10;;;;;;;;;;5131551;27;20029;-78
2022/04/09 06:43:55;;;;;;;0.10;0.10;;;;;;;;;;5131089;27;20023;-83
2022/04/09 06:46:21;;;;;;;0.10;0.10;;;;;;;;;;5130795;27;20023;-82
2022/04/09 06:48:47;;;;;;;0.10;0.10;;;;;;;;;;5102027;28;20047;-76
2022/04/09 06:51:13;;;;;;;0.10;0.10;;;;;;;;;;5130354;27;20027;-83
2022/04/09 06:53:39;;;;;;;0.10;0.10;;;;;;;;;;5131203;27;20031;-80
2022/04/09 06:56:05;;;;;;;0.10;0.10;;;;;;;;;;5112868;27;20501;-78
2022/04/09 06:58:31;;;;;;;0.10;0.10;;;;;;;;;;5131633;27;20023;-78
2022/04/09 07:00:58;;;;;;;0.20;0.20;;;;;;;;;;5132087;27;20555;-80
2022/04/09 07:03:24;;;;;;;0.10;0.10;;;;;;;;;;5135306;27;20024;-78
2022/04/09 07:05:50;;;;;;;0.10;0.10;;;;;;;;;;5135461;27;20068;-78
2022/04/09 07:08:17;;;;;;;0.10;0.10;;;;;;;;;;5135373;27;20035;-79
2022/04/09 07:10:43;;;;;;;0.20;0.20;;;;;;;;;;5135320;27;20102;-79
2022/04/09 07:13:09;;;;;;;1.65;1.63;;;;;;;;;;5135718;27;20058;-89
2022/04/09 07:15:35;;;;;;;0.10;0.10;;;;;;;;;;5097563;28;20039;-82
2022/04/09 07:18:01;;;;;;;0.10;0.10;;;;;;;;;;5116579;27;20024;-82
2022/04/09 07:20:29;;;;;;;0.10;0.10;;;;;;;;;;5133072;27;20479;-85
2022/04/09 07:22:55;;;;;;;0.10;0.10;;;;;;;;;;5120267;27;20079;-86
2022/04/09 07:25:21;;;;;;;0.10;0.10;;;;;;;;;;5120261;27;20059;-86
2022/04/09 07:27:48;;;;;;;0.10;0.10;;;;;;;;;;5118326;27;20028;-88
2022/04/09 07:30:15;;;;;;;0.10;0.10;;;;;;;;;;5141755;27;20061;-82
2022/04/09 07:32:41;;;;;;;0.10;0.10;;;;;;;;;;5114957;27;20023;-82
2022/04/09 07:35:11;;;;;;;0.10;0.10;;;;;;;;;;5117765;27;20053;-88
2022/04/09 07:37:49;;;;;;;0.10;0.10;;;;;;;;;;5135951;27;20142;-83
2022/04/09 07:40:15;;;;;;;0.10;0.10;;;;;;;;;;5136379;27;20019;-86
2022/04/09 07:42:42;;;;;;;1.85;1.55;;;;;;;;;;5101192;28;20034;-89
2022/04/09 07:45:09;;;;;;;0.05;0.05;;;;;;;;;;5133057;27;20110;-78
2022/04/09 07:47:35;;;;;;;0.10;0.10;;;;;;;;;;5136108;27;20027;-86
2022/04/09 07:50:02;;;;;;;0.47;0.47;;;;;;;;;;5135925;27;20027;-85
2022/04/09 07:52:28;;;;;;;0.10;0.10;;;;;;;;;;5136043;27;20054;-88
2022/04/09 07:54:57;;;;;;;0.10;0.10;;;;;;;;;;5136359;27;20067;-86
2022/04/09 07:57:23;;;;;;;0.10;0.10;;;;;;;;;;5135721;27;20031;-88
2022/04/09 07:59:49;;;;;;;0.10;0.10;;;;;;;;;;5136005;27;20031;-86
2022/04/09 08:02:15;;;;;;;0.10;0.10;;;;;;;;;;5118206;27;20023;-89
2022/04/09 08:04:41;;;;;;;0.10;0.10;;;;;;;;;;5132229;27;20027;-86
2022/04/09 08:07:07;;;;;;;0.10;0.10;;;;;;;;;;5115332;28;20620;-86
2022/04/09 08:09:33;;;;;;;0.10;0.10;;;;;;;;;;5096556;28;20027;-86
2022/04/09 08:11:59;;;;;;;0.10;0.10;;;;;;;;;;5127894;27;20038;-86
2022/04/09 08:14:25;;;;;;;0.10;0.10;;;;;;;;;;5135111;27;20106;-88
2022/04/09 08:16:51;;;;;;;0.10;0.10;;;;;;;;;;5135379;27;20387;-82
2022/04/09 08:19:18;;;;;;;0.10;0.10;;;;;;;;;;5117028;27;20051;-82
2022/04/09 08:21:44;;;;;;;0.10;0.10;;;;;;;;;;5135689;27;20096;-80
2022/04/09 08:24:13;;;;;;;0.10;0.10;;;;;;;;;;5135480;27;20077;-81
2022/04/09 08:26:39;;;;;;;0.10;0.10;;;;;;;;;;5134612;27;20111;-83
2022/04/09 08:29:05;;;;;;;0.10;0.10;;;;;;;;;;5134861;27;20098;-84
2022/04/09 08:31:31;;;;;;;0.10;0.10;;;;;;;;;;5136010;27;20029;-84
2022/04/09 08:33:58;;;;;;;0.10;0.10;;;;;;;;;;5117128;27;20038;-83
2022/04/09 08:36:24;;;;;;;0.10;0.10;;;;;;;;;;5134033;27;20152;-84
2022/04/09 08:38:51;;;;;;;0.10;0.10;;;;;;;;;;5134525;27;20041;-81
2022/04/09 08:41:17;;;;;;;0.10;0.10;;;;;;;;;;5134876;27;20031;-80
2022/04/09 08:43:43;;;;;;;0.10;0.10;;;;;;;;;;5116505;27;20057;-81
2022/04/09 08:46:09;;;;;;;0.10;0.10;;;;;;;;;;5134946;27;20050;-83
2022/04/09 08:48:37;;;;;;;0.10;0.10;;;;;;;;;;5114775;27;20113;-83
2022/04/09 08:51:03;;;;;;;0.10;0.10;;;;;;;;;;5133296;27;20048;-83
2022/04/09 08:53:30;;;;;;;0.10;0.10;;;;;;;;;;5134525;27;20027;-83
2022/04/09 08:55:56;;;;;;;0.10;0.10;;;;;;;;;;5134779;27;20027;-82
2022/04/09 08:58:22;;;;;;;0.10;0.10;;;;;;;;;;5134444;27;20030;-82
2022/04/09 09:00:48;;;;;;;0.10;0.10;;;;;;;;;;5116755;27;20023;-76
2022/04/09 09:03:15;;;;;;;0.10;0.10;;;;;;;;;;5134750;27;20054;-83
2022/04/09 09:05:41;;;;;;;0.13;0.13;;;;;;;;;;5134456;27;20547;-84
2022/04/09 09:08:08;;;;;;;0.10;0.10;;;;;;;;;;5134369;27;20027;-82
2022/04/09 09:10:35;;;;;;;0.10;0.10;;;;;;;;;;5134305;27;20092;-81
2022/04/09 09:13:04;;;;;;;0.10;0.10;;;;;;;;;;5115893;27;20034;-83
2022/04/09 09:15:30;;;;;;;0.10;0.10;;;;;;;;;;5134130;27;20034;-83
2022/04/09 09:17:57;;;;;;;0.10;0.10;;;;;;;;;;5134096;27;20024;-82
2022/04/09 09:20:24;;;;;;;0.10;0.10;;;;;;;;;;5115495;27;20113;-83
2022/04/09 09:22:50;;;;;;;0.10;0.10;;;;;;;;;;5115758;27;20554;-83
2022/04/09 09:25:17;;;;;;;0.10;0.10;;;;;;;;;;5133399;27;20019;-82
2022/04/09 09:27:43;;;;;;;0.10;0.10;;;;;;;;;;5133805;27;20027;-83
2022/04/09 09:30:13;;;;;;;0.10;0.10;;;;;;;;;;5115418;27;20133;-83
2022/04/09 09:32:41;;;;;;;0.10;0.10;;;;;;;;;;5133670;27;20432;-83
2022/04/09 09:35:09;;;;;;;0.10;0.10;;;;;;;;;;5133840;27;20023;-83
2022/04/09 09:37:35;;;;;;;0.10;0.10;;;;;;;;;;5133768;27;20023;-83
2022/04/09 09:40:02;;;;;;;0.10;0.10;;;;;;;;;;5133700;27;20106;-83
2022/04/09 09:42:28;;;;;;;0.10;0.10;;;;;;;;;;5133520;27;20019;-84
2022/04/09 09:44:54;;;;;;;0.10;0.10;;;;;;;;;;5133634;27;20015;-82
2022/04/09 09:47:20;;;;;;;0.10;0.10;;;;;;;;;;5114847;27;20019;-83
2022/04/09 09:49:56;;;;;;;0.20;0.20;;;;;;;;;;5115548;27;20435;-83
2022/04/09 09:52:25;;;;;;;0.10;0.10;;;;;;;;;;5133336;27;20106;-83
2022/04/09 09:54:57;;;;;;;0.10;0.10;;;;;;;;;;5114980;27;20050;-83
2022/04/09 09:57:26;;;;;;;0.10;0.10;;;;;;;;;;5114789;27;20058;-83
2022/04/09 09:59:53;;;;;;;0.20;0.20;;;;;;;;;;5133395;27;20023;-83
2022/04/09 10:02:23;;;;;;;0.20;0.20;;;;;;;;;;5114844;27;20022;-82
2022/04/09 10:04:49;;;;;;;0.10;0.10;;;;;;;;;;5114930;27;20053;-82
2022/04/09 10:07:18;;;;;;;0.10;0.10;;;;;;;;;;5115074;27;20474;-81
2022/04/09 10:09:45;;;;;;;0.10;0.10;;;;;;;;;;5133431;27;20019;-82
2022/04/09 10:12:12;;;;;;;0.10;0.10;;;;;;;;;;5114760;27;20062;-83
2022/04/09 10:14:39;;;;;;;0.10;0.10;;;;;;;;;;5132833;27;20455;-84
2022/04/09 10:17:07;;;;;;;0.10;0.10;;;;;;;;;;5133224;27;20019;-83
2022/04/09 10:19:34;;;;;;;0.10;0.10;;;;;;;;;;5132841;27;20035;-84
2022/04/09 10:22:01;;;;;;;0.10;0.10;;;;;;;;;;5114629;27;20487;-84
2022/04/09 10:24:27;;;;;;;0.10;0.10;;;;;;;;;;5114099;27;20049;-83
2022/04/09 10:26:55;;;;;;;0.10;0.10;;;;;;;;;;5132852;27;20027;-83
2022/04/09 10:29:22;;;;;;;0.10;0.10;;;;;;;;;;5114576;27;20114;-84
2022/04/09 10:31:52;;;;;;;0.10;0.10;;;;;;;;;;5133019;27;20026;-84
2022/04/09 10:34:20;;;;;;;0.10;0.10;;;;;;;;;;5098692;28;20033;-84
2022/04/09 10:36:46;;;;;;;0.10;0.10;;;;;;;;;;5113991;28;20075;-84
2022/04/09 10:39:39;;;;;;;0.10;0.10;;;;;;;;;;5135936;27;20050;-83
2022/04/09 10:42:05;;;;;;;0.10;0.10;;;;;;;;;;5133157;27;20391;-84
2022/04/09 10:44:40;;;;;;;0.10;0.10;;;;;;;;;;5132279;27;20026;-80
2022/04/09 10:47:07;;;;;;;0.13;0.13;;;;;;;;;;5132608;27;20487;-84
2022/04/09 10:49:33;;;;;;;0.10;0.10;;;;;;;;;;5134026;27;20030;-82
2022/04/09 10:52:03;;;;;;;0.10;0.10;;;;;;;;;;5133754;27;20023;-82
2022/04/09 10:54:29;;;;;;;0.10;0.10;;;;;;;;;;5132078;27;20062;-84
2022/04/09 10:56:57;;;;;;;0.10;0.10;;;;;;;;;;5110484;28;20394;-82
2022/04/09 10:59:23;;;;;;;0.10;0.10;;;;;;;;;;5131990;28;20030;-83
2022/04/09 11:01:50;;;;;;;0.10;0.10;;;;;;;;;;5113652;28;20187;-84
2022/04/09 11:04:34;;;;;;;0.10;0.10;;;;;;;;;;5133381;28;20088;-84
2022/04/09 11:07:03;;;;;;;2.67;2.47;;;;;;;;;;5114480;28;20028;-85
2022/04/09 11:09:43;;;;;;;0.10;0.10;;;;;;;;;;5132563;28;20019;-86
2022/04/09 11:12:09;;;;;;;0.10;0.10;;;;;;;;;;5132273;27;20027;-83
2022/04/09 11:14:54;;;;;;;0.10;0.10;;;;;;;;;;5113759;28;20088;-82
2022/04/09 11:17:24;;;;;;;0.10;0.10;;;;;;;;;;5132026;27;20026;-80
2022/04/09 11:19:50;;;;;;;0.10;0.10;;;;;;;;;;5132439;27;20027;-79
2022/04/09 11:22:17;;;;;;;0.10;0.10;;;;;;;;;;5114632;28;20027;-83
2022/04/09 11:24:43;;;;;;;0.10;0.10;;;;;;;;;;5132485;27;20027;-87
2022/04/09 11:27:12;;;;;;;0.10;0.10;;;;;;;;;;5114149;27;20498;-81
2022/04/09 11:29:40;;;;;;;0.10;0.10;;;;;;;;;;5132319;27;20369;-84
2022/04/09 11:32:06;;;;;;;0.10;0.10;;;;;;;;;;5132447;28;20098;-79
2022/04/09 11:34:48;;;;;;;0.20;0.20;;;;;;;;;;5131821;27;20047;-83
2022/04/09 11:37:15;;;;;;;0.10;0.10;;;;;;;;;;5120290;28;20395;-80
2022/04/09 11:39:41;;;;;;;0.10;0.10;;;;;;;;;;5126622;27;20110;-78
2022/04/09 11:42:07;;;;;;;0.10;0.10;;;;;;;;;;5131238;28;20018;-79
2022/04/09 11:44:35;;;;;;;0.10;0.10;;;;;;;;;;5131740;27;20044;-81
2022/04/09 11:47:23;;;;;;;0.10;0.10;;;;;;;;;;5113766;27;20020;-81
2022/04/09 11:49:49;;;;;;;0.10;0.10;;;;;;;;;;5135475;27;20031;-80
2022/04/09 11:52:29;;;;;;;0.10;0.10;;;;;;;;;;5135307;27;20038;-80
2022/04/09 11:54:59;;;;;;;0.10;0.10;;;;;;;;;;5135083;27;20473;-82
2022/04/09 11:57:25;;;;;;;0.10;0.10;;;;;;;;;;5134714;27;20023;-82
2022/04/09 11:59:52;;;;;;;0.15;0.15;;;;;;;;;;5134976;27;20023;-79
2022/04/09 12:02:23;;;;;;;0.10;0.10;;;;;;;;;;5134626;27;20023;-80
2022/04/09 12:04:49;;;;;;;0.20;0.20;;;;;;;;;;5134087;27;20019;-78
2022/04/09 12:07:16;;;;;;;0.10;0.10;;;;;;;;;;5135080;27;20031;-79
2022/04/09 12:09:43;;;;;;;0.10;0.10;;;;;;;;;;5116477;27;20084;-81
2022/04/09 12:12:09;;;;;;;0.10;0.10;;;;;;;;;;5116727;27;20033;-80
2022/04/09 12:14:35;;;;;;;0.10;0.10;;;;;;;;;;5134206;27;20590;-80
2022/04/09 12:17:11;;;;;;;0.10;0.10;;;;;;;;;;5133768;27;20522;-80
2022/04/09 12:19:38;;;;;;;0.10;0.10;;;;;;;;;;5134977;27;20019;-82
2022/04/09 12:22:19;;;;;;;0.10;0.10;;;;;;;;;;5134154;27;20072;-83
2022/04/09 12:24:56;;;;;;;0.10;0.10;;;;;;;;;;5134437;27;20023;-79
2022/04/09 12:27:23;;;;;;;0.10;0.10;;;;;;;;;;5134416;27;20528;-80
2022/04/09 12:29:53;;;;;;;0.30;0.30;;;;;;;;;;5134055;27;20029;-83
2022/04/09 12:32:23;;;;;;;0.10;0.10;;;;;;;;;;5134463;27;20499;-84
2022/04/09 12:34:56;;;;;;;0.10;0.10;;;;;;;;;;5127870;27;20031;-83
2022/04/09 12:37:22;;;;;;;0.10;0.10;;;;;;;;;;5124740;27;20024;-83
2022/04/09 12:39:49;;;;;;;0.10;0.10;;;;;;;;;;5132845;27;20053;-81
2022/04/09 12:42:15;;;;;;;0.10;0.10;;;;;;;;;;5131710;27;20486;-80
2022/04/09 12:44:43;;;;;;;0.10;0.10;;;;;;;;;;5134950;27;20096;-83
2022/04/09 12:47:09;;;;;;;0.10;0.10;;;;;;;;;;5100029;28;20034;-84
2022/04/09 12:49:36;;;;;;;0.10;0.10;;;;;;;;;;5101476;28;20035;-85
2022/04/09 12:52:03;;;;;;;0.10;0.10;;;;;;;;;;5125542;27;20031;-81
2022/04/09 12:54:31;;;;;;;0.10;0.10;;;;;;;;;;5134179;27;20043;-83
2022/04/09 12:57:04;;;;;;;0.10;0.10;;;;;;;;;;5098417;28;20030;-83
2022/04/09 12:59:30;;;;;;;0.10;0.10;;;;;;;;;;5131070;27;20106;-83
2022/04/09 13:01:56;;;;;;;0.10;0.10;;;;;;;;;;5131181;27;20047;-80
2022/04/09 13:04:22;;;;;;;0.10;0.10;;;;;;;;;;5134360;27;20023;-82
2022/04/09 13:06:48;;;;;;;0.10;0.10;;;;;;;;;;5104972;28;20073;-80
2022/04/09 13:09:14;;;;;;;0.10;0.10;;;;;;;;;;5100740;27;20032;-82
2022/04/09 13:11:40;;;;;;;0.10;0.10;;;;;;;;;;5123575;27;20518;-82
2022/04/09 13:14:07;;;;;;;0.20;0.20;;;;;;;;;;5125393;27;20066;-83
2022/04/09 13:16:33;;;;;;;0.10;0.10;;;;;;;;;;5106234;27;20499;-81
2022/04/09 13:18:59;;;;;;;0.10;0.10;;;;;;;;;;5124564;27;20019;-81
2022/04/09 13:21:25;;;;;;;0.10;0.10;;;;;;;;;;5125554;27;20068;-80
2022/04/09 13:23:52;;;;;;;0.10;0.10;;;;;;;;;;5129088;27;20026;-83
2022/04/09 13:26:17;;;;;;;0.10;0.10;;;;;;;;;;5129106;27;20098;-84
2022/04/09 13:28:43;;;;;;;0.10;0.10;;;;;;;;;;5099644;28;20059;-84
2022/04/09 13:31:09;;;;;;;0.10;0.10;;;;;;;;;;5106488;28;20539;-81
2022/04/09 13:33:35;;;;;;;0.10;0.10;;;;;;;;;;5110994;27;20041;-85
2022/04/09 13:36:01;;;;;;;0.10;0.10;;;;;;;;;;5105131;27;20023;-86
2022/04/09 13:38:27;;;;;;;0.10;0.10;;;;;;;;;;5118613;27;20551;-82
2022/04/09 13:40:54;;;;;;;0.10;0.10;;;;;;;;;;5119203;27;20039;-83
2022/04/09 13:43:20;;;;;;;0.10;0.10;;;;;;;;;;5114115;27;20023;-82
2022/04/09 13:45:46;;;;;;;0.10;0.10;;;;;;;;;;5124132;27;20019;-83
2022/04/09 13:48:12;;;;;;;0.10;0.10;;;;;;;;;;5100052;27;20114;-83
2022/04/09 13:50:38;;;;;;;0.17;0.17;;;;;;;;;;5121486;27;20429;-82
2022/04/09 13:53:04;;;;;;;0.10;0.10;;;;;;;;;;5099333;28;20019;-82
2022/04/09 13:55:30;;;;;;;0.10;0.10;;;;;;;;;;5126357;27;20032;-83
2022/04/09 13:57:57;;;;;;;0.10;0.10;;;;;;;;;;5133878;27;20337;-83
2022/04/09 14:00:23;;;;;;;0.10;0.10;;;;;;;;;;5114544;27;20402;-84
2022/04/09 14:02:49;;;;;;;0.10;0.10;;;;;;;;;;5133337;27;20023;-85
2022/04/09 14:05:15;;;;;;;0.10;0.10;;;;;;;;;;5115850;27;20435;-85
2022/04/09 14:07:41;;;;;;;0.10;0.10;;;;;;;;;;5133677;27;20031;-87
2022/04/09 14:10:08;;;;;;;0.10;0.10;;;;;;;;;;5132893;27;20524;-86
2022/04/09 14:12:35;;;;;;;0.10;0.10;;;;;;;;;;5111192;28;20537;-86
2022/04/09 14:15:01;;;;;;;0.10;0.10;;;;;;;;;;5112786;28;20035;-87
2022/04/09 14:17:28;;;;;;;0.10;0.10;;;;;;;;;;5112132;28;20027;-84
2022/04/09 14:19:54;;;;;;;0.10;0.10;;;;;;;;;;5112785;28;20067;-83
2022/04/09 14:22:20;;;;;;;0.10;0.10;;;;;;;;;;5121762;27;20102;-88
2022/04/09 14:24:46;;;;;;;0.10;0.10;;;;;;;;;;5133319;27;20031;-84
2022/04/09 14:27:12;;;;;;;0.10;0.10;;;;;;;;;;5130647;27;20506;-83
2022/04/09 14:29:38;;;;;;;0.10;0.10;;;;;;;;;;5131624;27;20039;-88
2022/04/09 14:32:04;;;;;;;0.20;0.20;;;;;;;;;;5133386;27;20482;-88
2022/04/09 14:34:30;;;;;;;0.10;0.10;;;;;;;;;;5114623;27;20129;-86
2022/04/09 14:36:56;;;;;;;0.10;0.10;;;;;;;;;;5133180;27;20051;-84
2022/04/09 14:39:22;;;;;;;0.10;0.10;;;;;;;;;;5132170;27;20486;-86
2022/04/09 14:41:48;;;;;;;0.10;0.10;;;;;;;;;;5128819;27;20023;-81